sensor_id;sensor_type;location;lat;lon;timestamp;P1;durP1;ratioP1;P2;durP2;ratioP2
15216;SDS011;7711;46.634;14.318;2023-08-07T00:00:30;3.10;;;2.40;;
15216;SDS011;7711;46.634;14.318;2023-08-07T00:02:57;2.87;;;2.30;;
15216;SDS011;7711;46.634;14.318;2023-08-07T00:05:24;5.53;;;2.63;;
15216;SDS011;7711;46.634;14.318;2023-08-07T00:07:51;3.97;;;2.30;;
15216;SDS011;7711;46.634;14.318;2023-08-07T00:10:20;2.55;;;2.35;;
15216;SDS011;7711;46.634;14.318;2023-08-07T00:12:46;3.03;;;2.47;;
15216;SDS011;7711;46.634;14.318;2023-08-07T00:15:13;2.50;;;2.30;;
15216;SDS011;7711;46.634;14.318;2023-08-07T00:17:40;5.23;;;2.83;;
15216;SDS011;7711;46.634;14.318;2023-08-07T00:20:08;3.03;;;2.57;;
15216;SDS011;7711;46.634;14.318;2023-08-07T00:22:35;3.87;;;2.63;;
15216;SDS011;7711;46.634;14.318;2023-08-07T00:25:02;2.97;;;2.60;;
15216;SDS011;7711;46.634;14.318;2023-08-07T00:27:31;4.37;;;2.50;;
15216;SDS011;7711;46.634;14.318;2023-08-07T00:29:58;5.13;;;2.50;;
15216;SDS011;7711;46.634;14.318;2023-08-07T00:32:25;5.07;;;2.33;;
15216;SDS011;7711;46.634;14.318;2023-08-07T00:34:52;5.23;;;2.70;;
15216;SDS011;7711;46.634;14.318;2023-08-07T00:37:19;2.93;;;2.40;;
15216;SDS011;7711;46.634;14.318;2023-08-07T00:39:45;5.13;;;2.40;;
15216;SDS011;7711;46.634;14.318;2023-08-07T00:42:12;3.73;;;2.60;;
15216;SDS011;7711;46.634;14.318;2023-08-07T00:44:41;4.30;;;2.37;;
15216;SDS011;7711;46.634;14.318;2023-08-07T00:47:08;5.80;;;2.60;;
15216;SDS011;7711;46.634;14.318;2023-08-07T00:49:35;2.90;;;2.60;;
15216;SDS011;7711;46.634;14.318;2023-08-07T00:52:02;3.57;;;2.53;;
15216;SDS011;7711;46.634;14.318;2023-08-07T00:54:30;5.50;;;2.63;;
15216;SDS011;7711;46.634;14.318;2023-08-07T00:56:59;5.03;;;2.77;;
15216;SDS011;7711;46.634;14.318;2023-08-07T00:59:33;6.00;;;2.70;;
15216;SDS011;7711;46.634;14.318;2023-08-07T01:02:01;2.50;;;2.20;;
15216;SDS011;7711;46.634;14.318;2023-08-07T01:04:28;4.27;;;2.50;;
15216;SDS011;7711;46.634;14.318;2023-08-07T01:06:56;3.40;;;2.60;;
15216;SDS011;7711;46.634;14.318;2023-08-07T01:09:23;4.60;;;2.47;;
15216;SDS011;7711;46.634;14.318;2023-08-07T01:11:53;2.77;;;2.57;;
15216;SDS011;7711;46.634;14.318;2023-08-07T01:14:28;2.60;;;2.40;;
15216;SDS011;7711;46.634;14.318;2023-08-07T01:17:16;2.90;;;2.23;;
15216;SDS011;7711;46.634;14.318;2023-08-07T01:19:45;3.53;;;2.67;;
15216;SDS011;7711;46.634;14.318;2023-08-07T01:22:15;2.50;;;2.30;;
15216;SDS011;7711;46.634;14.318;2023-08-07T01:24:43;3.13;;;2.43;;
15216;SDS011;7711;46.634;14.318;2023-08-07T01:27:15;3.83;;;2.50;;
15216;SDS011;7711;46.634;14.318;2023-08-07T01:29:59;4.57;;;2.50;;
15216;SDS011;7711;46.634;14.318;2023-08-07T01:32:32;2.40;;;2.13;;
15216;SDS011;7711;46.634;14.318;2023-08-07T01:35:03;2.57;;;2.37;;
15216;SDS011;7711;46.634;14.318;2023-08-07T01:37:34;4.27;;;2.63;;
15216;SDS011;7711;46.634;14.318;2023-08-07T01:40:05;5.20;;;2.40;;
15216;SDS011;7711;46.634;14.318;2023-08-07T01:42:34;4.30;;;2.50;;
15216;SDS011;7711;46.634;14.318;2023-08-07T01:45:01;2.73;;;2.40;;
15216;SDS011;7711;46.634;14.318;2023-08-07T01:47:28;3.90;;;2.67;;
15216;SDS011;7711;46.634;14.318;2023-08-07T01:49:55;3.10;;;2.50;;
15216;SDS011;7711;46.634;14.318;2023-08-07T01:52:22;4.47;;;2.50;;
15216;SDS011;7711;46.634;14.318;2023-08-07T01:54:51;2.93;;;2.50;;
15216;SDS011;7711;46.634;14.318;2023-08-07T01:57:18;2.73;;;2.50;;
15216;SDS011;7711;46.634;14.318;2023-08-07T01:59:44;2.67;;;2.30;;
15216;SDS011;7711;46.634;14.318;2023-08-07T02:02:11;5.27;;;2.77;;
15216;SDS011;7711;46.634;14.318;2023-08-07T02:04:38;3.60;;;2.23;;
15216;SDS011;7711;46.634;14.318;2023-08-07T02:07:05;3.63;;;2.40;;
15216;SDS011;7711;46.634;14.318;2023-08-07T02:09:32;4.67;;;2.73;;
15216;SDS011;7711;46.634;14.318;2023-08-07T02:12:01;6.13;;;2.60;;
15216;SDS011;7711;46.634;14.318;2023-08-07T02:14:28;4.27;;;2.60;;
15216;SDS011;7711;46.634;14.318;2023-08-07T02:16:55;4.27;;;2.27;;
15216;SDS011;7711;46.634;14.318;2023-08-07T02:19:22;2.87;;;2.57;;
15216;SDS011;7711;46.634;14.318;2023-08-07T02:21:49;5.80;;;2.40;;
15216;SDS011;7711;46.634;14.318;2023-08-07T02:24:16;4.77;;;2.40;;
15216;SDS011;7711;46.634;14.318;2023-08-07T02:26:43;6.67;;;2.40;;
15216;SDS011;7711;46.634;14.318;2023-08-07T02:29:11;2.53;;;2.00;;
15216;SDS011;7711;46.634;14.318;2023-08-07T02:31:38;3.50;;;2.20;;
15216;SDS011;7711;46.634;14.318;2023-08-07T02:34:05;3.03;;;2.10;;
15216;SDS011;7711;46.634;14.318;2023-08-07T02:36:33;3.03;;;2.10;;
15216;SDS011;7711;46.634;14.318;2023-08-07T02:39:00;3.30;;;2.00;;
15216;SDS011;7711;46.634;14.318;2023-08-07T02:41:27;5.77;;;2.13;;
15216;SDS011;7711;46.634;14.318;2023-08-07T02:43:54;2.57;;;2.30;;
15216;SDS011;7711;46.634;14.318;2023-08-07T02:46:22;3.77;;;2.23;;
15216;SDS011;7711;46.634;14.318;2023-08-07T02:48:49;4.63;;;2.30;;
15216;SDS011;7711;46.634;14.318;2023-08-07T02:51:17;2.60;;;1.90;;
15216;SDS011;7711;46.634;14.318;2023-08-07T02:53:44;2.30;;;2.10;;
15216;SDS011;7711;46.634;14.318;2023-08-07T02:56:11;2.30;;;2.10;;
15216;SDS011;7711;46.634;14.318;2023-08-07T02:58:38;2.70;;;2.10;;
15216;SDS011;7711;46.634;14.318;2023-08-07T03:01:05;2.80;;;2.33;;
15216;SDS011;7711;46.634;14.318;2023-08-07T03:03:34;4.40;;;2.50;;
15216;SDS011;7711;46.634;14.318;2023-08-07T03:06:01;2.67;;;2.40;;
15216;SDS011;7711;46.634;14.318;2023-08-07T03:08:28;2.40;;;2.20;;
15216;SDS011;7711;46.634;14.318;2023-08-07T03:10:55;3.20;;;2.70;;
15216;SDS011;7711;46.634;14.318;2023-08-07T03:13:22;3.53;;;2.83;;
15216;SDS011;7711;46.634;14.318;2023-08-07T03:15:50;2.43;;;2.20;;
15216;SDS011;7711;46.634;14.318;2023-08-07T03:18:25;2.50;;;2.30;;
15216;SDS011;7711;46.634;14.318;2023-08-07T03:20:53;3.07;;;2.40;;
15216;SDS011;7711;46.634;14.318;2023-08-07T03:23:21;3.70;;;2.50;;
15216;SDS011;7711;46.634;14.318;2023-08-07T03:25:48;4.70;;;2.27;;
15216;SDS011;7711;46.634;14.318;2023-08-07T03:28:15;3.83;;;2.10;;
15216;SDS011;7711;46.634;14.318;2023-08-07T03:30:42;2.77;;;2.30;;
15216;SDS011;7711;46.634;14.318;2023-08-07T03:33:09;3.50;;;2.40;;
15216;SDS011;7711;46.634;14.318;2023-08-07T03:35:36;2.83;;;2.30;;
15216;SDS011;7711;46.634;14.318;2023-08-07T03:38:05;2.50;;;2.30;;
15216;SDS011;7711;46.634;14.318;2023-08-07T03:40:32;4.20;;;2.20;;
15216;SDS011;7711;46.634;14.318;2023-08-07T03:42:59;2.30;;;2.10;;
15216;SDS011;7711;46.634;14.318;2023-08-07T03:45:26;3.87;;;2.10;;
15216;SDS011;7711;46.634;14.318;2023-08-07T03:47:53;4.17;;;2.30;;
15216;SDS011;7711;46.634;14.318;2023-08-07T03:50:20;2.37;;;2.07;;
15216;SDS011;7711;46.634;14.318;2023-08-07T03:52:47;4.33;;;2.20;;
15216;SDS011;7711;46.634;14.318;2023-08-07T03:55:15;2.50;;;2.03;;
15216;SDS011;7711;46.634;14.318;2023-08-07T03:57:43;2.47;;;2.10;;
15216;SDS011;7711;46.634;14.318;2023-08-07T04:00:10;2.57;;;2.10;;
15216;SDS011;7711;46.634;14.318;2023-08-07T04:02:38;3.17;;;1.90;;
15216;SDS011;7711;46.634;14.318;2023-08-07T04:05:05;2.30;;;2.10;;
15216;SDS011;7711;46.634;14.318;2023-08-07T04:07:32;2.77;;;2.40;;
15216;SDS011;7711;46.634;14.318;2023-08-07T04:09:59;1.90;;;1.80;;
15216;SDS011;7711;46.634;14.318;2023-08-07T04:12:28;3.70;;;2.20;;
15216;SDS011;7711;46.634;14.318;2023-08-07T04:14:54;4.73;;;2.07;;
15216;SDS011;7711;46.634;14.318;2023-08-07T04:17:21;2.33;;;1.90;;
15216;SDS011;7711;46.634;14.318;2023-08-07T04:19:48;3.43;;;2.23;;
15216;SDS011;7711;46.634;14.318;2023-08-07T04:22:15;3.30;;;2.10;;
15216;SDS011;7711;46.634;14.318;2023-08-07T04:24:42;2.60;;;2.20;;
15216;SDS011;7711;46.634;14.318;2023-08-07T04:27:09;2.50;;;2.30;;
15216;SDS011;7711;46.634;14.318;2023-08-07T04:29:38;3.03;;;1.67;;
15216;SDS011;7711;46.634;14.318;2023-08-07T04:32:05;2.30;;;2.03;;
15216;SDS011;7711;46.634;14.318;2023-08-07T04:34:33;4.63;;;1.83;;
15216;SDS011;7711;46.634;14.318;2023-08-07T04:37:00;5.80;;;1.90;;
15216;SDS011;7711;46.634;14.318;2023-08-07T04:39:27;2.67;;;2.00;;
15216;SDS011;7711;46.634;14.318;2023-08-07T04:41:55;3.17;;;2.50;;
15216;SDS011;7711;46.634;14.318;2023-08-07T04:44:22;2.80;;;1.70;;
15216;SDS011;7711;46.634;14.318;2023-08-07T04:46:50;2.90;;;1.80;;
15216;SDS011;7711;46.634;14.318;2023-08-07T04:49:18;2.20;;;1.80;;
15216;SDS011;7711;46.634;14.318;2023-08-07T04:51:45;2.50;;;1.80;;
15216;SDS011;7711;46.634;14.318;2023-08-07T04:54:12;2.47;;;1.80;;
15216;SDS011;7711;46.634;14.318;2023-08-07T04:56:39;4.20;;;1.77;;
15216;SDS011;7711;46.634;14.318;2023-08-07T04:59:07;2.23;;;1.90;;
15216;SDS011;7711;46.634;14.318;2023-08-07T05:01:34;3.27;;;2.07;;
15216;SDS011;7711;46.634;14.318;2023-08-07T05:04:02;2.27;;;1.80;;
15216;SDS011;7711;46.634;14.318;2023-08-07T05:06:30;2.87;;;1.90;;
15216;SDS011;7711;46.634;14.318;2023-08-07T05:08:57;3.20;;;1.80;;
15216;SDS011;7711;46.634;14.318;2023-08-07T05:11:24;1.87;;;1.50;;
15216;SDS011;7711;46.634;14.318;2023-08-07T05:13:51;5.13;;;2.07;;
15216;SDS011;7711;46.634;14.318;2023-08-07T05:16:17;4.53;;;1.60;;
15216;SDS011;7711;46.634;14.318;2023-08-07T05:18:44;3.07;;;1.70;;
15216;SDS011;7711;46.634;14.318;2023-08-07T05:21:13;2.17;;;1.80;;
15216;SDS011;7711;46.634;14.318;2023-08-07T05:23:40;3.07;;;1.50;;
15216;SDS011;7711;46.634;14.318;2023-08-07T05:26:07;2.70;;;1.60;;
15216;SDS011;7711;46.634;14.318;2023-08-07T05:28:33;2.90;;;1.60;;
15216;SDS011;7711;46.634;14.318;2023-08-07T05:31:00;2.43;;;1.60;;
15216;SDS011;7711;46.634;14.318;2023-08-07T05:33:27;2.77;;;1.80;;
15216;SDS011;7711;46.634;14.318;2023-08-07T05:35:54;1.50;;;1.40;;
15216;SDS011;7711;46.634;14.318;2023-08-07T05:38:23;2.97;;;1.60;;
15216;SDS011;7711;46.634;14.318;2023-08-07T05:40:49;2.70;;;1.57;;
15216;SDS011;7711;46.634;14.318;2023-08-07T05:43:16;2.20;;;1.73;;
15216;SDS011;7711;46.634;14.318;2023-08-07T05:45:43;2.40;;;1.63;;
15216;SDS011;7711;46.634;14.318;2023-08-07T05:48:11;2.57;;;1.30;;
15216;SDS011;7711;46.634;14.318;2023-08-07T05:50:38;1.97;;;1.40;;
15216;SDS011;7711;46.634;14.318;2023-08-07T05:53:05;2.30;;;1.47;;
15216;SDS011;7711;46.634;14.318;2023-08-07T05:55:33;2.63;;;1.80;;
15216;SDS011;7711;46.634;14.318;2023-08-07T05:58:00;3.30;;;1.70;;
15216;SDS011;7711;46.634;14.318;2023-08-07T06:00:27;2.40;;;1.70;;
15216;SDS011;7711;46.634;14.318;2023-08-07T06:02:55;2.10;;;1.70;;
15216;SDS011;7711;46.634;14.318;2023-08-07T06:05:22;1.47;;;1.37;;
15216;SDS011;7711;46.634;14.318;2023-08-07T06:07:49;1.98;;;1.60;;
15216;SDS011;7711;46.634;14.318;2023-08-07T06:10:16;1.70;;;1.50;;
15216;SDS011;7711;46.634;14.318;2023-08-07T06:12:44;1.57;;;1.47;;
15216;SDS011;7711;46.634;14.318;2023-08-07T06:15:11;2.13;;;1.63;;
15216;SDS011;7711;46.634;14.318;2023-08-07T06:17:38;2.87;;;1.50;;
15216;SDS011;7711;46.634;14.318;2023-08-07T06:20:06;2.47;;;1.43;;
15216;SDS011;7711;46.634;14.318;2023-08-07T06:22:36;1.47;;;1.33;;
15216;SDS011;7711;46.634;14.318;2023-08-07T06:25:04;1.88;;;1.65;;
15216;SDS011;7711;46.634;14.318;2023-08-07T06:27:32;4.88;;;1.52;;
15216;SDS011;7711;46.634;14.318;2023-08-07T06:30:00;2.90;;;1.50;;
15216;SDS011;7711;46.634;14.318;2023-08-07T06:32:27;1.43;;;1.10;;
15216;SDS011;7711;46.634;14.318;2023-08-07T06:34:54;4.60;;;1.47;;
15216;SDS011;7711;46.634;14.318;2023-08-07T06:37:21;1.40;;;1.30;;
15216;SDS011;7711;46.634;14.318;2023-08-07T06:39:48;1.40;;;1.30;;
15216;SDS011;7711;46.634;14.318;2023-08-07T06:42:15;1.50;;;1.40;;
15216;SDS011;7711;46.634;14.318;2023-08-07T06:44:42;1.88;;;1.30;;
15216;SDS011;7711;46.634;14.318;2023-08-07T06:47:11;2.30;;;1.27;;
15216;SDS011;7711;46.634;14.318;2023-08-07T06:49:38;2.63;;;1.25;;
15216;SDS011;7711;46.634;14.318;2023-08-07T06:52:05;2.30;;;1.50;;
15216;SDS011;7711;46.634;14.318;2023-08-07T06:54:32;1.25;;;1.10;;
15216;SDS011;7711;46.634;14.318;2023-08-07T06:56:59;2.10;;;1.58;;
15216;SDS011;7711;46.634;14.318;2023-08-07T06:59:26;1.52;;;1.42;;
15216;SDS011;7711;46.634;14.318;2023-08-07T07:01:53;3.35;;;1.40;;
15216;SDS011;7711;46.634;14.318;2023-08-07T07:04:21;2.53;;;1.40;;
15216;SDS011;7711;46.634;14.318;2023-08-07T07:06:48;2.28;;;1.90;;
15216;SDS011;7711;46.634;14.318;2023-08-07T07:09:15;1.65;;;1.30;;
15216;SDS011;7711;46.634;14.318;2023-08-07T07:11:42;1.50;;;1.40;;
15216;SDS011;7711;46.634;14.318;2023-08-07T07:14:10;3.55;;;1.60;;
15216;SDS011;7711;46.634;14.318;2023-08-07T07:16:37;3.25;;;1.35;;
15216;SDS011;7711;46.634;14.318;2023-08-07T07:19:04;1.70;;;1.50;;
15216;SDS011;7711;46.634;14.318;2023-08-07T07:21:34;1.40;;;1.25;;
15216;SDS011;7711;46.634;14.318;2023-08-07T07:24:02;1.77;;;1.60;;
15216;SDS011;7711;46.634;14.318;2023-08-07T07:26:29;1.30;;;1.20;;
15216;SDS011;7711;46.634;14.318;2023-08-07T07:28:56;2.83;;;1.35;;
15216;SDS011;7711;46.634;14.318;2023-08-07T07:31:23;1.20;;;1.10;;
15216;SDS011;7711;46.634;14.318;2023-08-07T07:33:49;1.42;;;1.10;;
15216;SDS011;7711;46.634;14.318;2023-08-07T07:36:16;1.92;;;1.30;;
15216;SDS011;7711;46.634;14.318;2023-08-07T07:38:46;2.92;;;1.40;;
15216;SDS011;7711;46.634;14.318;2023-08-07T07:41:13;1.10;;;1.10;;
15216;SDS011;7711;46.634;14.318;2023-08-07T07:43:40;1.30;;;1.20;;
15216;SDS011;7711;46.634;14.318;2023-08-07T07:46:07;1.45;;;1.35;;
15216;SDS011;7711;46.634;14.318;2023-08-07T07:48:34;1.50;;;1.40;;
15216;SDS011;7711;46.634;14.318;2023-08-07T07:51:02;1.33;;;1.17;;
15216;SDS011;7711;46.634;14.318;2023-08-07T07:53:29;1.67;;;1.40;;
15216;SDS011;7711;46.634;14.318;2023-08-07T07:55:58;2.65;;;1.23;;
15216;SDS011;7711;46.634;14.318;2023-08-07T07:58:25;1.58;;;1.35;;
15216;SDS011;7711;46.634;14.318;2023-08-07T08:00:52;1.67;;;1.25;;
15216;SDS011;7711;46.634;14.318;2023-08-07T08:03:20;2.53;;;1.40;;
15216;SDS011;7711;46.634;14.318;2023-08-07T08:05:49;3.30;;;1.35;;
15216;SDS011;7711;46.634;14.318;2023-08-07T08:08:16;1.65;;;1.20;;
15216;SDS011;7711;46.634;14.318;2023-08-07T08:10:43;2.70;;;1.30;;
15216;SDS011;7711;46.634;14.318;2023-08-07T08:13:13;2.35;;;1.40;;
15216;SDS011;7711;46.634;14.318;2023-08-07T08:15:41;1.30;;;1.20;;
15216;SDS011;7711;46.634;14.318;2023-08-07T08:18:08;1.45;;;1.30;;
15216;SDS011;7711;46.634;14.318;2023-08-07T08:20:35;1.20;;;1.10;;
15216;SDS011;7711;46.634;14.318;2023-08-07T08:23:02;1.98;;;1.50;;
15216;SDS011;7711;46.634;14.318;2023-08-07T08:25:29;1.98;;;1.25;;
15216;SDS011;7711;46.634;14.318;2023-08-07T08:27:57;1.42;;;1.33;;
15216;SDS011;7711;46.634;14.318;2023-08-07T08:30:26;4.82;;;1.42;;
15216;SDS011;7711;46.634;14.318;2023-08-07T08:32:55;1.35;;;1.25;;
15216;SDS011;7711;46.634;14.318;2023-08-07T08:35:22;1.48;;;1.38;;
15216;SDS011;7711;46.634;14.318;2023-08-07T08:37:49;2.78;;;1.20;;
15216;SDS011;7711;46.634;14.318;2023-08-07T08:40:16;4.03;;;1.50;;
15216;SDS011;7711;46.634;14.318;2023-08-07T08:42:44;2.25;;;1.50;;
15216;SDS011;7711;46.634;14.318;2023-08-07T08:45:12;1.25;;;1.15;;
15216;SDS011;7711;46.634;14.318;2023-08-07T08:47:42;1.02;;;0.95;;
15216;SDS011;7711;46.634;14.318;2023-08-07T08:50:10;4.93;;;1.33;;
15216;SDS011;7711;46.634;14.318;2023-08-07T08:52:41;1.88;;;1.30;;
15216;SDS011;7711;46.634;14.318;2023-08-07T08:55:09;1.35;;;1.25;;
15216;SDS011;7711;46.634;14.318;2023-08-07T08:57:37;1.85;;;1.20;;
15216;SDS011;7711;46.634;14.318;2023-08-07T09:00:05;1.50;;;1.10;;
15216;SDS011;7711;46.634;14.318;2023-08-07T09:02:44;1.25;;;1.15;;
15216;SDS011;7711;46.634;14.318;2023-08-07T09:05:11;1.30;;;1.20;;
15216;SDS011;7711;46.634;14.318;2023-08-07T09:07:40;5.50;;;1.58;;
15216;SDS011;7711;46.634;14.318;2023-08-07T09:10:07;1.02;;;0.90;;
15216;SDS011;7711;46.634;14.318;2023-08-07T09:12:36;3.08;;;1.23;;
15216;SDS011;7711;46.634;14.318;2023-08-07T09:15:07;1.33;;;1.17;;
15216;SDS011;7711;46.634;14.318;2023-08-07T09:17:36;3.28;;;1.40;;
15216;SDS011;7711;46.634;14.318;2023-08-07T09:20:08;1.30;;;1.10;;
15216;SDS011;7711;46.634;14.318;2023-08-07T09:22:38;1.25;;;1.15;;
15216;SDS011;7711;46.634;14.318;2023-08-07T09:25:06;3.72;;;1.20;;
15216;SDS011;7711;46.634;14.318;2023-08-07T09:27:35;1.10;;;1.10;;
15216;SDS011;7711;46.634;14.318;2023-08-07T09:30:04;0.90;;;0.90;;
15216;SDS011;7711;46.634;14.318;2023-08-07T09:32:33;1.85;;;1.15;;
15216;SDS011;7711;46.634;14.318;2023-08-07T09:35:01;1.17;;;1.08;;
15216;SDS011;7711;46.634;14.318;2023-08-07T09:37:30;1.63;;;0.77;;
15216;SDS011;7711;46.634;14.318;2023-08-07T09:39:59;1.00;;;0.80;;
15216;SDS011;7711;46.634;14.318;2023-08-07T09:42:28;1.05;;;0.98;;
15216;SDS011;7711;46.634;14.318;2023-08-07T09:44:57;1.00;;;0.95;;
15216;SDS011;7711;46.634;14.318;2023-08-07T09:47:25;2.30;;;1.00;;
15216;SDS011;7711;46.634;14.318;2023-08-07T09:49:55;0.90;;;0.90;;
15216;SDS011;7711;46.634;14.318;2023-08-07T09:52:22;1.67;;;0.90;;
15216;SDS011;7711;46.634;14.318;2023-08-07T09:54:56;1.58;;;1.08;;
15216;SDS011;7711;46.634;14.318;2023-08-07T09:57:23;1.90;;;1.10;;
15216;SDS011;7711;46.634;14.318;2023-08-07T09:59:51;0.95;;;0.95;;
15216;SDS011;7711;46.634;14.318;2023-08-07T10:02:18;0.77;;;0.77;;
15216;SDS011;7711;46.634;14.318;2023-08-07T10:04:47;1.65;;;0.98;;
15216;SDS011;7711;46.634;14.318;2023-08-07T10:07:16;0.70;;;0.70;;
15216;SDS011;7711;46.634;14.318;2023-08-07T10:09:43;0.80;;;0.80;;
15216;SDS011;7711;46.634;14.318;2023-08-07T10:12:13;1.13;;;1.00;;
15216;SDS011;7711;46.634;14.318;2023-08-07T10:14:42;2.28;;;1.20;;
15216;SDS011;7711;46.634;14.318;2023-08-07T10:17:11;1.05;;;1.00;;
15216;SDS011;7711;46.634;14.318;2023-08-07T10:19:38;0.90;;;0.90;;
15216;SDS011;7711;46.634;14.318;2023-08-07T10:22:05;1.38;;;1.27;;
15216;SDS011;7711;46.634;14.318;2023-08-07T10:24:33;0.80;;;0.80;;
15216;SDS011;7711;46.634;14.318;2023-08-07T10:27:04;2.28;;;1.10;;
15216;SDS011;7711;46.634;14.318;2023-08-07T10:29:34;0.85;;;0.82;;
15216;SDS011;7711;46.634;14.318;2023-08-07T10:32:02;1.70;;;1.08;;
15216;SDS011;7711;46.634;14.318;2023-08-07T10:34:33;1.67;;;1.13;;
15216;SDS011;7711;46.634;14.318;2023-08-07T10:37:00;1.48;;;1.38;;
15216;SDS011;7711;46.634;14.318;2023-08-07T10:39:27;1.50;;;1.40;;
15216;SDS011;7711;46.634;14.318;2023-08-07T10:41:54;1.42;;;1.33;;
15216;SDS011;7711;46.634;14.318;2023-08-07T10:44:21;2.55;;;1.40;;
15216;SDS011;7711;46.634;14.318;2023-08-07T10:46:51;1.25;;;1.15;;
15216;SDS011;7711;46.634;14.318;2023-08-07T10:49:32;2.00;;;1.42;;
15216;SDS011;7711;46.634;14.318;2023-08-07T10:52:02;1.33;;;1.23;;
15216;SDS011;7711;46.634;14.318;2023-08-07T10:54:29;1.67;;;1.52;;
15216;SDS011;7711;46.634;14.318;2023-08-07T10:56:56;1.75;;;1.58;;
15216;SDS011;7711;46.634;14.318;2023-08-07T10:59:26;1.50;;;1.40;;
15216;SDS011;7711;46.634;14.318;2023-08-07T11:01:58;2.78;;;1.40;;
15216;SDS011;7711;46.634;14.318;2023-08-07T11:04:25;2.55;;;1.70;;
15216;SDS011;7711;46.634;14.318;2023-08-07T11:06:52;1.70;;;1.60;;
15216;SDS011;7711;46.634;14.318;2023-08-07T11:09:19;3.10;;;1.73;;
15216;SDS011;7711;46.634;14.318;2023-08-07T11:11:47;2.67;;;1.65;;
15216;SDS011;7711;46.634;14.318;2023-08-07T11:14:15;1.70;;;1.60;;
15216;SDS011;7711;46.634;14.318;2023-08-07T11:16:43;2.30;;;2.08;;
15216;SDS011;7711;46.634;14.318;2023-08-07T11:19:12;1.67;;;1.58;;
15216;SDS011;7711;46.634;14.318;2023-08-07T11:21:41;1.60;;;1.50;;
15216;SDS011;7711;46.634;14.318;2023-08-07T11:24:11;2.65;;;1.77;;
15216;SDS011;7711;46.634;14.318;2023-08-07T11:26:39;2.08;;;1.88;;
15216;SDS011;7711;46.634;14.318;2023-08-07T11:29:08;4.07;;;2.10;;
15216;SDS011;7711;46.634;14.318;2023-08-07T11:31:35;6.20;;;2.20;;
15216;SDS011;7711;46.634;14.318;2023-08-07T11:34:02;3.28;;;1.98;;
15216;SDS011;7711;46.634;14.318;2023-08-07T11:36:30;2.47;;;1.98;;
15216;SDS011;7711;46.634;14.318;2023-08-07T11:38:58;1.90;;;1.80;;
15216;SDS011;7711;46.634;14.318;2023-08-07T11:41:26;2.10;;;1.90;;
15216;SDS011;7711;46.634;14.318;2023-08-07T11:43:53;2.13;;;1.73;;
15216;SDS011;7711;46.634;14.318;2023-08-07T11:46:20;2.13;;;1.60;;
15216;SDS011;7711;46.634;14.318;2023-08-07T11:48:47;2.20;;;2.00;;
15216;SDS011;7711;46.634;14.318;2023-08-07T11:51:14;4.18;;;2.00;;
15216;SDS011;7711;46.634;14.318;2023-08-07T11:53:44;2.00;;;1.80;;
15216;SDS011;7711;46.634;14.318;2023-08-07T11:56:11;1.70;;;1.60;;
15216;SDS011;7711;46.634;14.318;2023-08-07T11:58:41;2.38;;;1.90;;
15216;SDS011;7711;46.634;14.318;2023-08-07T12:01:11;1.73;;;1.63;;
15216;SDS011;7711;46.634;14.318;2023-08-07T12:03:41;2.40;;;1.85;;
15216;SDS011;7711;46.634;14.318;2023-08-07T12:06:09;1.80;;;1.70;;
15216;SDS011;7711;46.634;14.318;2023-08-07T12:08:36;3.67;;;1.70;;
15216;SDS011;7711;46.634;14.318;2023-08-07T12:11:07;2.08;;;1.88;;
15216;SDS011;7711;46.634;14.318;2023-08-07T12:13:36;2.13;;;1.45;;
15216;SDS011;7711;46.634;14.318;2023-08-07T12:16:03;2.67;;;2.00;;
15216;SDS011;7711;46.634;14.318;2023-08-07T12:18:31;2.35;;;1.80;;
15216;SDS011;7711;46.634;14.318;2023-08-07T12:20:59;2.78;;;1.85;;
15216;SDS011;7711;46.634;14.318;2023-08-07T12:23:26;2.83;;;2.10;;
15216;SDS011;7711;46.634;14.318;2023-08-07T12:25:54;1.70;;;1.60;;
15216;SDS011;7711;46.634;14.318;2023-08-07T12:28:22;2.17;;;1.98;;
15216;SDS011;7711;46.634;14.318;2023-08-07T12:30:50;2.40;;;1.75;;
15216;SDS011;7711;46.634;14.318;2023-08-07T12:33:17;1.95;;;1.80;;
15216;SDS011;7711;46.634;14.318;2023-08-07T12:35:45;1.83;;;1.73;;
15216;SDS011;7711;46.634;14.318;2023-08-07T12:38:12;2.00;;;1.83;;
15216;SDS011;7711;46.634;14.318;2023-08-07T12:40:40;2.13;;;1.90;;
15216;SDS011;7711;46.634;14.318;2023-08-07T12:43:07;1.70;;;1.58;;
15216;SDS011;7711;46.634;14.318;2023-08-07T12:45:36;1.65;;;1.55;;
15216;SDS011;7711;46.634;14.318;2023-08-07T12:48:03;2.25;;;1.90;;
15216;SDS011;7711;46.634;14.318;2023-08-07T12:50:30;1.83;;;1.70;;
15216;SDS011;7711;46.634;14.318;2023-08-07T12:52:57;1.80;;;1.70;;
15216;SDS011;7711;46.634;14.318;2023-08-07T12:55:25;3.13;;;1.83;;
15216;SDS011;7711;46.634;14.318;2023-08-07T12:57:53;2.25;;;1.80;;
15216;SDS011;7711;46.634;14.318;2023-08-07T13:00:20;2.58;;;1.77;;
15216;SDS011;7711;46.634;14.318;2023-08-07T13:02:50;1.73;;;1.63;;
15216;SDS011;7711;46.634;14.318;2023-08-07T13:05:17;2.58;;;1.73;;
15216;SDS011;7711;46.634;14.318;2023-08-07T13:07:47;1.85;;;1.75;;
15216;SDS011;7711;46.634;14.318;2023-08-07T13:10:14;2.03;;;1.80;;
15216;SDS011;7711;46.634;14.318;2023-08-07T13:12:43;2.38;;;1.73;;
15216;SDS011;7711;46.634;14.318;2023-08-07T13:15:12;2.15;;;1.80;;
15216;SDS011;7711;46.634;14.318;2023-08-07T13:17:40;2.10;;;1.90;;
15216;SDS011;7711;46.634;14.318;2023-08-07T13:20:09;2.40;;;1.92;;
15216;SDS011;7711;46.634;14.318;2023-08-07T13:22:38;3.20;;;1.90;;
15216;SDS011;7711;46.634;14.318;2023-08-07T13:25:06;2.28;;;1.90;;
15216;SDS011;7711;46.634;14.318;2023-08-07T13:27:35;2.13;;;1.92;;
15216;SDS011;7711;46.634;14.318;2023-08-07T13:30:02;1.70;;;1.60;;
15216;SDS011;7711;46.634;14.318;2023-08-07T13:32:30;1.88;;;1.70;;
15216;SDS011;7711;46.634;14.318;2023-08-07T13:34:58;2.00;;;1.80;;
15216;SDS011;7711;46.634;14.318;2023-08-07T13:37:26;1.70;;;1.60;;
15216;SDS011;7711;46.634;14.318;2023-08-07T13:39:53;1.80;;;1.70;;
15216;SDS011;7711;46.634;14.318;2023-08-07T13:42:23;1.80;;;1.67;;
15216;SDS011;7711;46.634;14.318;2023-08-07T13:44:50;1.70;;;1.60;;
15216;SDS011;7711;46.634;14.318;2023-08-07T13:47:19;2.80;;;1.85;;
15216;SDS011;7711;46.634;14.318;2023-08-07T13:49:47;2.47;;;1.80;;
15216;SDS011;7711;46.634;14.318;2023-08-07T13:52:16;1.85;;;1.70;;
15216;SDS011;7711;46.634;14.318;2023-08-07T13:54:46;1.98;;;1.77;;
15216;SDS011;7711;46.634;14.318;2023-08-07T13:57:15;1.67;;;1.58;;
15216;SDS011;7711;46.634;14.318;2023-08-07T13:59:44;1.80;;;1.70;;
15216;SDS011;7711;46.634;14.318;2023-08-07T14:02:13;2.03;;;1.60;;
15216;SDS011;7711;46.634;14.318;2023-08-07T14:04:42;1.85;;;1.70;;
15216;SDS011;7711;46.634;14.318;2023-08-07T14:07:11;1.90;;;1.80;;
15216;SDS011;7711;46.634;14.318;2023-08-07T14:54:58;1.83;;;1.73;;
15216;SDS011;7711;46.634;14.318;2023-08-07T14:57:26;1.80;;;1.70;;
15216;SDS011;7711;46.634;14.318;2023-08-07T14:59:53;2.10;;;1.90;;
15216;SDS011;7711;46.634;14.318;2023-08-07T15:02:20;1.88;;;1.77;;
15216;SDS011;7711;46.634;14.318;2023-08-07T15:04:47;4.13;;;1.83;;
15216;SDS011;7711;46.634;14.318;2023-08-07T15:07:14;2.20;;;1.90;;
15216;SDS011;7711;46.634;14.318;2023-08-07T15:09:41;2.03;;;1.70;;
15216;SDS011;7711;46.634;14.318;2023-08-07T15:12:10;3.17;;;1.65;;
15216;SDS011;7711;46.634;14.318;2023-08-07T15:14:37;1.80;;;1.67;;
15216;SDS011;7711;46.634;14.318;2023-08-07T15:17:04;1.98;;;1.70;;
15216;SDS011;7711;46.634;14.318;2023-08-07T15:19:31;1.90;;;1.80;;
15216;SDS011;7711;46.634;14.318;2023-08-07T15:21:58;4.07;;;1.70;;
15216;SDS011;7711;46.634;14.318;2023-08-07T15:24:25;1.92;;;1.70;;
15216;SDS011;7711;46.634;14.318;2023-08-07T15:26:52;1.80;;;1.70;;
15216;SDS011;7711;46.634;14.318;2023-08-07T15:29:21;1.85;;;1.75;;
15216;SDS011;7711;46.634;14.318;2023-08-07T15:31:48;2.08;;;1.88;;
15216;SDS011;7711;46.634;14.318;2023-08-07T15:34:15;1.80;;;1.70;;
15216;SDS011;7711;46.634;14.318;2023-08-07T15:36:43;1.95;;;1.80;;